Pearces, Michigan
Current Conditions -  °F | °C
As of 1:55 PM on Thursday 23 Oct 2014 (Local Time) from KOZW Reporting Station
Clear Clear  
Wind Chill: 53°   Ceiling: Unl
Heat Index: 53°   Visibility: 10mi
Dew Point: 42°   Wind: 0mph
Humidity: 66%   Direction: NA
Pressure: 30.19"   Gusts: NA
Location:  42.7°N, 83.9305°W
Report Text: KOZW 231755Z AUTO 00000KT 10SM CLR 11/05 A3019 RMK AO2 T01140053 10114 21020
Loading
Personal Weather Stations






























Interactive Weather Map
Tropical Storm Tracking
New forecast layout! Learn more

10-Day Weather Forecast

Advertisements
Track Severe Weather on mobile